createdAt,value
2019-04-28T00:01:15.613Z,45.50
2019-04-28T00:03:44.199Z,45.50
2019-04-28T00:06:12.762Z,45.40
2019-04-28T00:08:42.846Z,45.40
2019-04-28T00:11:11.746Z,45.00
2019-04-28T00:13:41.754Z,44.50
2019-04-28T00:16:11.583Z,44.40
2019-04-28T00:18:41.537Z,44.40
2019-04-28T00:21:23.624Z,44.40
2019-04-28T00:23:53.561Z,44.40
2019-04-28T00:26:38.723Z,44.60
2019-04-28T00:29:07.412Z,44.50
2019-04-28T00:31:35.717Z,44.50
2019-04-28T00:34:04.277Z,44.70
2019-04-28T00:36:32.855Z,44.70
2019-04-28T00:39:01.657Z,44.70
2019-04-28T00:41:30.912Z,44.70
2019-04-28T00:44:01.773Z,44.80
2019-04-28T00:46:33.983Z,44.70
2019-04-28T00:49:02.276Z,44.70
2019-04-28T00:51:31.321Z,44.80
2019-04-28T00:54:00.800Z,44.80
2019-04-28T00:56:29.358Z,44.70
2019-04-28T00:58:57.710Z,44.70
2019-04-28T01:01:46.235Z,44.90
2019-04-28T01:04:14.815Z,44.80
2019-04-28T01:06:43.180Z,44.80
2019-04-28T01:09:11.885Z,44.80
2019-04-28T01:11:41.453Z,44.80
2019-04-28T01:14:11.479Z,45.20
2019-04-28T01:16:47.246Z,44.70
2019-04-28T01:19:17.425Z,44.80
2019-04-28T01:22:04.090Z,45.00
2019-04-28T01:24:32.396Z,44.90
2019-04-28T01:27:00.694Z,44.80
2019-04-28T01:29:29.537Z,44.80
2019-04-28T01:32:16.444Z,45.00
2019-04-28T01:34:44.737Z,45.00
2019-04-28T01:37:13.310Z,45.00
2019-04-28T01:39:41.601Z,44.90
2019-04-28T01:42:10.673Z,45.00
2019-04-28T01:44:39.640Z,45.10
2019-04-28T01:47:08.038Z,45.20
2019-04-28T01:49:36.333Z,45.70
2019-04-28T01:52:04.914Z,45.20
2019-04-28T01:54:33.599Z,45.10
2019-04-28T01:57:02.174Z,45.20
2019-04-28T01:59:30.770Z,45.10
2019-04-28T02:02:00.176Z,45.10
2019-04-28T02:04:30.065Z,45.00
2019-04-28T02:06:59.828Z,45.10
2019-04-28T02:09:29.640Z,45.00
2019-04-28T02:11:58.182Z,45.10
2019-04-28T02:14:26.884Z,45.10
2019-04-28T02:16:55.175Z,45.10
2019-04-28T02:19:23.479Z,45.10
2019-04-28T02:22:02.674Z,45.10
2019-04-28T02:24:32.533Z,45.10
2019-04-28T02:27:01.120Z,45.10
2019-04-28T02:29:30.360Z,45.00
2019-04-28T02:32:02.023Z,45.10
2019-04-28T02:34:31.158Z,45.00
2019-04-28T02:37:01.492Z,45.00
2019-04-28T02:39:31.256Z,45.10
2019-04-28T02:42:01.469Z,45.10
2019-04-28T02:44:33.458Z,45.10
2019-04-28T02:47:01.053Z,45.10
2019-04-28T02:49:40.688Z,45.50
2019-04-28T02:52:13.443Z,45.00
2019-04-28T02:54:41.733Z,45.10
2019-04-28T02:57:11.077Z,45.20
2019-04-28T02:59:40.918Z,45.10
2019-04-28T03:02:10.678Z,45.20
2019-04-28T03:04:40.789Z,45.30
2019-04-28T03:07:11.480Z,45.20
2019-04-28T03:09:40.346Z,45.10
2019-04-28T03:12:11.174Z,45.90
2019-04-28T03:14:40.801Z,45.20
2019-04-28T03:17:10.908Z,45.20
2019-04-28T03:19:41.504Z,45.30
2019-04-28T03:22:11.535Z,45.30
2019-04-28T03:24:41.316Z,45.30
2019-04-28T03:27:11.608Z,45.20
2019-04-28T03:29:41.570Z,45.30
2019-04-28T03:32:30.976Z,45.30
2019-04-28T03:34:45.604Z,45.30
2019-04-28T03:37:13.993Z,45.30
2019-04-28T03:39:42.629Z,45.20
2019-04-28T03:42:11.712Z,45.20
2019-04-28T03:44:41.410Z,45.40
2019-04-28T03:47:10.779Z,45.40
2019-04-28T03:49:40.578Z,45.40
2019-04-28T03:52:10.730Z,45.40
2019-04-28T03:54:41.002Z,45.40
2019-04-28T03:57:11.504Z,45.50
2019-04-28T03:59:41.247Z,45.40
2019-04-28T04:02:11.323Z,45.50
2019-04-28T04:04:41.500Z,45.50
2019-04-28T04:07:11.068Z,45.50
2019-04-28T04:09:41.452Z,45.50
2019-04-28T04:12:21.183Z,45.50
2019-04-28T04:14:51.665Z,45.60
2019-04-28T04:17:27.726Z,45.50
2019-04-28T04:19:56.336Z,45.50
2019-04-28T04:22:24.651Z,45.50
2019-04-28T04:24:53.284Z,45.50
2019-04-28T04:27:21.956Z,45.60
2019-04-28T04:29:50.999Z,45.70
2019-04-28T04:32:26.209Z,45.60
2019-04-28T04:34:50.667Z,45.60
2019-04-28T04:37:20.501Z,45.60
2019-04-28T04:39:51.289Z,45.70
2019-04-28T04:42:20.419Z,45.70
2019-04-28T04:44:50.141Z,45.60
2019-04-28T04:47:21.034Z,45.70
2019-04-28T04:49:50.461Z,45.60
2019-04-28T04:52:20.324Z,45.70
2019-04-28T04:54:51.008Z,45.70
2019-04-28T04:57:20.684Z,45.80
2019-04-28T04:59:49.997Z,45.80
2019-04-28T05:02:29.602Z,45.80
2019-04-28T05:04:52.110Z,45.80
2019-04-28T05:07:20.387Z,45.90
2019-04-28T05:09:49.586Z,45.90
2019-04-28T05:12:19.593Z,45.80
2019-04-28T05:14:49.440Z,45.80
2019-04-28T05:17:20.167Z,45.90
2019-04-28T05:19:49.686Z,45.90
2019-04-28T05:22:20.188Z,46.00
2019-04-28T05:24:51.152Z,45.90
2019-04-28T05:27:22.189Z,45.90
2019-04-28T05:29:51.337Z,46.00
2019-04-28T05:32:20.517Z,46.00
2019-04-28T05:34:50.647Z,45.90
2019-04-28T05:37:21.113Z,45.90
2019-04-28T05:39:50.016Z,45.90
2019-04-28T05:42:19.984Z,46.00
2019-04-28T05:44:49.663Z,46.00
2019-04-28T05:47:18.083Z,46.00
2019-04-28T05:50:04.718Z,46.20
2019-04-28T05:52:46.687Z,46.10
2019-04-28T05:55:16.618Z,46.10
2019-04-28T05:57:55.762Z,46.10
2019-04-28T06:00:43.471Z,46.10
2019-04-28T06:03:13.716Z,46.20
2019-04-28T06:05:42.303Z,46.20
2019-04-28T06:08:24.200Z,46.20
2019-04-28T06:10:52.478Z,46.20
2019-04-28T06:13:20.767Z,46.10
2019-04-28T06:15:49.747Z,46.20
2019-04-28T06:18:20.110Z,46.20
2019-04-28T06:20:49.777Z,46.20
2019-04-28T06:23:18.458Z,46.40
2019-04-28T06:25:47.039Z,46.20
2019-04-28T06:28:15.626Z,46.30
2019-04-28T06:30:44.207Z,46.20
2019-04-28T06:33:12.894Z,46.20
2019-04-28T06:35:41.191Z,46.30
2019-04-28T06:38:09.490Z,46.30
2019-04-28T06:40:37.785Z,46.30
2019-04-28T06:43:06.511Z,46.30
2019-04-28T06:45:34.820Z,46.30
2019-04-28T06:48:03.474Z,46.40
2019-04-28T06:50:31.792Z,46.40
2019-04-28T06:53:02.792Z,46.40
2019-04-28T06:55:30.354Z,46.50
2019-04-28T06:57:58.642Z,46.50
2019-04-28T07:00:26.973Z,46.40
2019-04-28T07:02:55.246Z,46.50
2019-04-28T07:05:23.550Z,46.50
2019-04-28T07:07:51.830Z,46.60
2019-04-28T07:10:20.165Z,46.60
2019-04-28T07:12:48.807Z,46.60
2019-04-28T07:15:17.391Z,46.60
2019-04-28T07:17:45.760Z,46.50
2019-04-28T07:20:21.404Z,46.60
2019-04-28T07:22:50.000Z,46.60
2019-04-28T07:25:18.596Z,46.60
2019-04-28T07:27:47.158Z,46.60
2019-04-28T07:30:16.063Z,46.80
2019-04-28T07:32:44.635Z,46.60
2019-04-28T07:35:13.011Z,46.70
2019-04-28T07:37:41.717Z,46.70
2019-04-28T07:40:10.399Z,46.70
2019-04-28T07:42:38.981Z,46.70
2019-04-28T07:45:07.459Z,46.70
2019-04-28T07:47:36.041Z,46.70
2019-04-28T07:50:05.864Z,46.70
2019-04-28T07:52:41.527Z,46.70
2019-04-28T07:55:09.882Z,46.80
2019-04-28T07:57:38.176Z,46.80
2019-04-28T08:00:06.707Z,46.70
2019-04-28T08:02:35.329Z,46.70
2019-04-28T08:05:05.411Z,46.70
2019-04-28T08:07:33.748Z,46.70
2019-04-28T08:10:02.149Z,46.90
2019-04-28T08:12:30.421Z,46.80
2019-04-28T08:14:59.070Z,46.70
2019-04-28T08:17:27.347Z,46.60
2019-04-28T08:19:55.727Z,46.60
2019-04-28T08:22:24.307Z,46.60
2019-04-28T08:24:52.834Z,46.50
2019-04-28T08:27:21.469Z,46.60
2019-04-28T08:29:58.248Z,46.60
2019-04-28T08:32:34.003Z,46.70
2019-04-28T08:35:02.383Z,46.70
2019-04-28T08:37:30.997Z,46.40
2019-04-28T08:39:59.746Z,46.50
2019-04-28T08:42:28.326Z,46.60
2019-04-28T08:44:56.914Z,46.50
2019-04-28T08:47:25.243Z,46.50
2019-04-28T08:49:53.888Z,46.50
2019-04-28T08:52:22.170Z,46.30
2019-04-28T08:54:50.564Z,46.40
2019-04-28T08:57:18.867Z,46.40
2019-04-28T08:59:47.507Z,46.30
2019-04-28T09:02:15.802Z,46.40
2019-04-28T09:04:44.357Z,47.00
2019-04-28T09:07:12.955Z,46.40
2019-04-28T09:09:41.533Z,46.30
2019-04-28T09:12:09.815Z,46.20
2019-04-28T09:14:38.398Z,46.40
2019-04-28T09:17:06.683Z,46.50
2019-04-28T09:19:35.470Z,46.40
2019-04-28T09:22:04.974Z,46.20
2019-04-28T09:24:33.270Z,46.20
2019-04-28T09:27:01.685Z,46.00
2019-04-28T09:29:30.404Z,45.80
2019-04-28T09:31:59.143Z,46.00
2019-04-28T09:34:28.564Z,45.80
2019-04-28T09:36:57.179Z,45.70
2019-04-28T09:39:42.555Z,45.70
2019-04-28T09:42:12.487Z,45.70
2019-04-28T09:44:41.063Z,46.10
2019-04-28T09:47:09.634Z,46.10
2019-04-28T09:49:38.216Z,46.20
2019-04-28T09:52:06.804Z,46.20
2019-04-28T09:54:35.108Z,45.70
2019-04-28T09:57:03.396Z,45.80
2019-04-28T09:59:31.690Z,45.90
2019-04-28T10:01:59.967Z,45.80
2019-04-28T10:04:40.701Z,45.60
2019-04-28T10:06:58.639Z,45.70
2019-04-28T10:09:26.934Z,45.80
2019-04-28T10:11:55.230Z,45.50
2019-04-28T10:14:23.855Z,45.20
2019-04-28T10:16:52.441Z,45.30
2019-04-28T10:19:21.018Z,45.20
2019-04-28T10:21:49.320Z,45.10
2019-04-28T10:24:17.611Z,45.10
2019-04-28T10:26:45.974Z,45.00
2019-04-28T10:29:14.542Z,45.00
2019-04-28T10:31:43.142Z,44.70
2019-04-28T10:34:11.543Z,44.70
2019-04-28T10:36:40.386Z,44.70
2019-04-28T10:39:19.434Z,44.90
2019-04-28T10:41:47.699Z,44.80
2019-04-28T10:44:16.279Z,44.90
2019-04-28T10:46:44.566Z,44.90
2019-04-28T10:49:13.139Z,45.00
2019-04-28T10:51:41.726Z,44.90
2019-04-28T10:54:10.316Z,45.20
2019-04-28T10:56:41.931Z,45.10
2019-04-28T10:59:10.291Z,45.10
2019-04-28T11:01:38.583Z,45.40
2019-04-28T11:04:25.121Z,45.30
2019-04-28T11:06:53.587Z,45.60
2019-04-28T11:09:30.719Z,45.60
2019-04-28T11:11:59.582Z,45.60
2019-04-28T11:14:28.160Z,45.60
2019-04-28T11:16:56.755Z,45.40
2019-04-28T11:19:25.055Z,45.40
2019-04-28T11:21:53.707Z,45.80
2019-04-28T11:24:21.999Z,45.70
2019-04-28T11:26:50.585Z,45.80
2019-04-28T11:29:18.879Z,45.80
2019-04-28T11:31:47.185Z,45.70
2019-04-28T11:34:32.475Z,46.20
2019-04-28T11:37:00.783Z,46.10
2019-04-28T11:39:30.995Z,46.40
2019-04-28T11:41:59.584Z,46.40
2019-04-28T11:44:28.160Z,46.60
2019-04-28T11:46:56.743Z,46.60
2019-04-28T11:49:25.335Z,46.50
2019-04-28T11:51:53.915Z,46.30
2019-04-28T11:54:24.169Z,46.40
2019-04-28T11:56:52.231Z,46.30
2019-04-28T11:59:20.893Z,46.30
2019-04-28T12:01:49.682Z,46.20
2019-04-28T12:04:19.703Z,46.00
2019-04-28T12:06:48.288Z,45.80
2019-04-28T12:09:24.570Z,46.10
2019-04-28T12:11:54.515Z,45.90
2019-04-28T12:14:27.859Z,46.00
2019-04-28T12:17:14.652Z,46.10
2019-04-28T12:19:50.745Z,45.90
2019-04-28T12:22:19.362Z,46.00
2019-04-28T12:24:47.670Z,46.50
2019-04-28T12:27:16.280Z,46.30
2019-04-28T12:29:44.667Z,46.70
2019-04-28T12:32:13.339Z,46.80
2019-04-28T12:34:41.637Z,47.00
2019-04-28T12:37:10.030Z,46.80
2019-04-28T12:39:38.334Z,46.70
2019-04-28T12:42:06.960Z,46.60
2019-04-28T12:44:35.545Z,46.60
2019-04-28T12:47:04.099Z,46.70
2019-04-28T12:49:43.358Z,47.30
2019-04-28T12:52:12.374Z,46.80
2019-04-28T12:54:41.133Z,46.60
2019-04-28T12:57:09.474Z,46.80
2019-04-28T12:59:48.650Z,46.70
2019-04-28T13:02:27.635Z,46.80
2019-04-28T13:05:03.734Z,46.80
2019-04-28T13:07:32.321Z,46.80
2019-04-28T13:10:00.934Z,46.80
2019-04-28T13:12:29.229Z,46.90
2019-04-28T13:14:57.621Z,46.90
2019-04-28T13:17:26.098Z,47.00
2019-04-28T13:19:54.735Z,47.00
2019-04-28T13:22:23.315Z,47.00
2019-04-28T13:24:51.906Z,47.00
2019-04-28T13:27:20.453Z,47.00
2019-04-28T13:29:49.088Z,47.10
2019-04-28T13:32:17.575Z,47.00
2019-04-28T13:34:45.881Z,47.00
2019-04-28T13:37:14.174Z,47.10
2019-04-28T13:39:52.902Z,47.10
2019-04-28T13:42:21.196Z,46.40
2019-04-28T13:44:51.139Z,47.10
2019-04-28T13:47:19.834Z,46.90
2019-04-28T13:49:55.856Z,46.90
2019-04-28T13:52:24.173Z,46.90
2019-04-28T13:54:57.119Z,47.10
2019-04-28T13:57:25.443Z,47.00
2019-04-28T13:59:55.914Z,46.90
2019-04-28T14:02:28.588Z,47.10
2019-04-28T14:04:58.546Z,47.10
2019-04-28T14:07:27.106Z,47.20
2019-04-28T14:09:55.402Z,47.30
2019-04-28T14:12:23.732Z,47.10
2019-04-28T14:14:52.106Z,47.10
2019-04-28T14:17:22.362Z,47.20
2019-04-28T14:19:50.768Z,47.50
2019-04-28T14:22:19.176Z,47.30
2019-04-28T14:24:47.519Z,47.40
2019-04-28T14:27:16.015Z,47.20
2019-04-28T14:29:46.345Z,47.20
2019-04-28T14:32:15.204Z,47.30
2019-04-28T14:34:43.567Z,47.30
2019-04-28T14:37:12.164Z,47.40
2019-04-28T14:39:40.472Z,47.30
2019-04-28T14:42:09.120Z,47.10
2019-04-28T14:44:37.726Z,47.10
2019-04-28T14:47:06.066Z,47.00
2019-04-28T14:49:34.739Z,47.20
2019-04-28T14:52:03.099Z,47.30
2019-04-28T14:54:31.575Z,47.30
2019-04-28T14:57:00.224Z,47.10
2019-04-28T14:59:28.819Z,47.20
2019-04-28T15:02:01.447Z,47.30
2019-04-28T15:04:48.209Z,47.40
2019-04-28T15:07:34.725Z,47.30
2019-04-28T15:10:18.531Z,47.40
2019-04-28T15:12:47.091Z,47.40
2019-04-28T15:15:19.874Z,47.90
2019-04-28T15:17:45.940Z,47.10
2019-04-28T15:20:14.612Z,47.20
2019-04-28T15:22:43.196Z,47.40
2019-04-28T15:25:11.796Z,47.40
2019-04-28T15:27:40.128Z,47.60
2019-04-28T15:30:14.506Z,47.40
2019-04-28T15:32:43.164Z,47.50
2019-04-28T15:35:11.752Z,47.20
2019-04-28T15:37:40.420Z,47.20
2019-04-28T15:40:08.778Z,47.30
2019-04-28T15:42:37.424Z,47.40
2019-04-28T15:45:07.506Z,47.90
2019-04-28T15:47:36.104Z,47.80
2019-04-28T15:50:05.755Z,47.80
2019-04-28T15:52:34.496Z,47.40
2019-04-28T15:55:04.437Z,47.90
2019-04-28T15:57:32.723Z,47.80
2019-04-28T16:00:01.389Z,48.40
2019-04-28T16:02:30.057Z,48.00
2019-04-28T16:04:59.351Z,48.40
2019-04-28T16:07:28.003Z,48.00
2019-04-28T16:09:56.637Z,48.30
2019-04-28T16:12:25.183Z,47.70
2019-04-28T16:14:53.791Z,47.50
2019-04-28T16:17:22.091Z,48.10
2019-04-28T16:19:50.767Z,47.60
2019-04-28T16:22:19.046Z,47.60
2019-04-28T16:24:47.457Z,47.60
2019-04-28T16:27:15.830Z,48.10
2019-04-28T16:29:44.199Z,47.80
2019-04-28T16:32:12.846Z,47.90
2019-04-28T16:34:41.147Z,48.00
2019-04-28T16:37:09.437Z,48.30
2019-04-28T16:39:37.834Z,47.70
2019-04-28T16:42:07.087Z,48.20
2019-04-28T16:44:37.358Z,48.40
2019-04-28T16:47:06.002Z,48.70
2019-04-28T16:49:34.582Z,48.50
2019-04-28T16:52:03.368Z,48.00
2019-04-28T16:54:31.693Z,48.10
2019-04-28T16:57:01.977Z,48.10
2019-04-28T16:59:41.411Z,47.80
2019-04-28T17:02:27.100Z,48.40
2019-04-28T17:04:55.426Z,48.50
2019-04-28T17:07:24.158Z,48.20
2019-04-28T17:09:52.474Z,47.70
2019-04-28T17:12:21.133Z,48.20
2019-04-28T17:14:49.504Z,47.90
2019-04-28T17:17:17.797Z,48.00
2019-04-28T17:19:46.124Z,47.90
2019-04-28T17:22:14.734Z,48.00
2019-04-28T17:24:43.027Z,47.90
2019-04-28T17:27:11.715Z,47.70
2019-04-28T17:29:40.096Z,47.90
2019-04-28T17:32:08.676Z,48.00
2019-04-28T17:34:36.975Z,47.70
2019-04-28T17:37:07.448Z,47.90
2019-04-28T17:39:36.471Z,47.80
2019-04-28T17:42:05.461Z,47.80
2019-04-28T17:44:34.049Z,47.60
2019-04-28T17:47:02.630Z,47.60
2019-04-28T17:49:32.851Z,47.70
2019-04-28T17:52:01.143Z,47.70
2019-04-28T17:54:29.456Z,48.00
2019-04-28T17:56:58.091Z,48.10
2019-04-28T17:59:26.673Z,47.80
2019-04-28T18:01:56.970Z,47.90
2019-04-28T18:04:43.787Z,47.80
2019-04-28T18:07:26.112Z,47.70
2019-04-28T18:09:54.690Z,47.80
2019-04-28T18:12:22.991Z,47.90
2019-04-28T18:14:53.228Z,47.80
2019-04-28T18:17:41.243Z,47.40
2019-04-28T18:20:10.537Z,47.40
2019-04-28T18:22:39.127Z,47.40
2019-04-28T18:25:07.697Z,47.50
2019-04-28T18:27:36.389Z,47.40
2019-04-28T18:30:06.929Z,47.40
2019-04-28T18:32:36.948Z,47.40
2019-04-28T18:35:07.489Z,47.60
2019-04-28T18:37:40.458Z,47.50
2019-04-28T18:40:25.686Z,47.60
2019-04-28T18:43:01.884Z,47.50
2019-04-28T18:45:30.190Z,47.20
2019-04-28T18:47:58.845Z,47.50
2019-04-28T18:50:27.181Z,47.50
2019-04-28T18:52:55.498Z,47.60
2019-04-28T18:55:24.199Z,47.60
2019-04-28T18:57:52.523Z,47.60
2019-04-28T19:00:22.736Z,47.50
2019-04-28T19:02:51.398Z,47.40
2019-04-28T19:05:21.191Z,47.20
2019-04-28T19:07:51.412Z,47.40
2019-04-28T19:10:24.552Z,47.60
2019-04-28T19:13:00.642Z,47.90
2019-04-28T19:15:47.365Z,47.30
2019-04-28T19:18:26.193Z,47.40
2019-04-28T19:20:54.734Z,47.30
2019-04-28T19:23:23.365Z,47.30
2019-04-28T19:25:52.055Z,47.30
2019-04-28T19:28:20.837Z,47.40
2019-04-28T19:30:49.430Z,47.50
2019-04-28T19:33:18.112Z,47.40
2019-04-28T19:35:46.695Z,47.60
2019-04-28T19:38:15.276Z,47.60
2019-04-28T19:40:43.658Z,47.60
2019-04-28T19:43:12.240Z,47.60
2019-04-28T19:45:42.218Z,47.60
2019-04-28T19:48:10.860Z,47.40
2019-04-28T19:50:39.222Z,47.50
2019-04-28T19:53:07.762Z,47.60
2019-04-28T19:55:40.503Z,47.50
2019-04-28T19:58:19.670Z,48.10
2019-04-28T20:00:49.944Z,48.00
2019-04-28T20:03:18.552Z,47.60
2019-04-28T20:05:47.211Z,47.50
2019-04-28T20:08:15.511Z,47.40
2019-04-28T20:10:44.147Z,47.30
2019-04-28T20:13:12.572Z,47.50
2019-04-28T20:15:40.887Z,47.50
2019-04-28T20:18:09.506Z,47.60
2019-04-28T20:20:37.847Z,47.60
2019-04-28T20:23:06.879Z,47.50
2019-04-28T20:25:35.464Z,47.50
2019-04-28T20:28:04.064Z,47.50
2019-04-28T20:30:32.638Z,47.60
2019-04-28T20:33:07.244Z,47.50
2019-04-28T20:35:36.094Z,47.70
2019-04-28T20:38:08.778Z,47.70
2019-04-28T20:40:47.702Z,47.60
2019-04-28T20:43:20.807Z,47.60
2019-04-28T20:45:49.427Z,47.80
2019-04-28T20:48:17.719Z,47.80
2019-04-28T20:50:46.490Z,47.70
2019-04-28T20:53:15.176Z,47.70
2019-04-28T20:55:43.784Z,47.70
2019-04-28T20:58:12.079Z,47.60
2019-04-28T21:00:40.615Z,47.60
2019-04-28T21:03:08.923Z,47.70
2019-04-28T21:05:37.607Z,47.60
2019-04-28T21:08:06.270Z,47.70
2019-04-28T21:10:38.359Z,47.60
2019-04-28T21:13:05.290Z,48.40
2019-04-28T21:15:33.595Z,47.80
2019-04-28T21:18:01.898Z,47.80
2019-04-28T21:20:30.638Z,47.80
2019-04-28T21:22:59.198Z,47.80
2019-04-28T21:25:27.784Z,47.80
2019-04-28T21:27:56.095Z,47.80
2019-04-28T21:30:24.421Z,47.80
2019-04-28T21:32:52.710Z,47.80
2019-04-28T21:35:20.998Z,47.80
2019-04-28T21:37:49.574Z,47.80
2019-04-28T21:40:19.003Z,47.80
2019-04-28T21:42:55.454Z,47.70
2019-04-28T21:45:41.932Z,47.80
2019-04-28T21:48:11.569Z,47.80
2019-04-28T21:50:39.883Z,47.90
2019-04-28T21:53:08.525Z,47.90
2019-04-28T21:55:36.832Z,47.50
2019-04-28T21:58:05.398Z,47.30
2019-04-28T22:00:53.260Z,47.50
2019-04-28T22:03:21.623Z,47.20
2019-04-28T22:05:50.302Z,47.40
2019-04-28T22:08:18.870Z,47.60
2019-04-28T22:10:47.154Z,47.50
2019-04-28T22:13:15.726Z,47.50
2019-04-28T22:15:44.118Z,47.50
2019-04-28T22:18:12.707Z,47.50
2019-04-28T22:20:41.182Z,47.70
2019-04-28T22:23:18.214Z,47.60
2019-04-28T22:25:41.290Z,47.60
2019-04-28T22:28:10.083Z,47.60
2019-04-28T22:30:38.388Z,47.60
2019-04-28T22:33:06.959Z,47.60
2019-04-28T22:35:35.254Z,47.50
2019-04-28T22:38:04.238Z,47.50
2019-04-28T22:40:32.663Z,47.60
2019-04-28T22:43:00.946Z,47.60
2019-04-28T22:45:29.677Z,47.50
2019-04-28T22:47:58.362Z,47.50
2019-04-28T22:50:35.031Z,47.50
2019-04-28T22:53:03.714Z,47.50
2019-04-28T22:55:33.726Z,47.50
2019-04-28T22:58:09.815Z,47.50
2019-04-28T23:00:42.193Z,47.50
2019-04-28T23:03:12.486Z,47.50
2019-04-28T23:05:41.667Z,47.50
2019-04-28T23:08:10.376Z,47.60
2019-04-28T23:10:38.955Z,47.70
2019-04-28T23:13:07.263Z,47.50
2019-04-28T23:15:36.022Z,47.50
2019-04-28T23:18:04.603Z,47.60
2019-04-28T23:20:34.836Z,47.40
2019-04-28T23:23:04.792Z,47.60
2019-04-28T23:25:33.536Z,47.60
2019-04-28T23:28:01.886Z,47.50
2019-04-28T23:30:41.815Z,47.50
2019-04-28T23:33:10.544Z,47.60
2019-04-28T23:35:39.447Z,47.60
2019-04-28T23:38:08.023Z,47.50
2019-04-28T23:40:37.965Z,47.60
2019-04-28T23:43:08.262Z,47.50
2019-04-28T23:45:36.563Z,47.50
2019-04-28T23:48:04.859Z,47.60
2019-04-28T23:50:35.145Z,47.60
2019-04-28T23:53:05.320Z,47.60
2019-04-28T23:55:33.621Z,47.60
2019-04-28T23:58:01.945Z,47.70
